Time;durP1;ratioP1;P1;durP2;ratioP2;P2;SDS_P1;SDS_P2;PMS_P1;PMS_P2;Temp;Humidity;BMP_temperature;BMP_pressure;BME280_temperature;BME280_humidity;BME280_pressure;Samples;Min_cycle;Max_cycle;Signal;HPM_P1;HPM_P2
2022/04/16 00:01:09;;;;;;;20.80;14.98;;;;;;;;;;5037779;28;20126;-26
2022/04/16 00:03:35;;;;;;;19.52;14.68;;;;;;;;;;5072156;28;20037;-26
2022/04/16 00:06:01;;;;;;;19.40;15.15;;;;;;;;;;5054122;28;20093;-27
2022/04/16 00:08:28;;;;;;;22.35;16.70;;;;;;;;;;5053883;28;20039;-27
2022/04/16 00:10:54;;;;;;;19.23;15.13;;;;;;;;;;5037344;28;20048;-29
2022/04/16 00:13:21;;;;;;;21.80;16.83;;;;;;;;;;5072062;28;20520;-28
2022/04/16 00:15:49;;;;;;;19.05;15.05;;;;;;;;;;5072128;28;20154;-26
2022/04/16 00:18:16;;;;;;;23.75;17.80;;;;;;;;;;5071913;28;20090;-29
2022/04/16 00:20:42;;;;;;;21.42;17.20;;;;;;;;;;5071770;28;20044;-27
2022/04/16 00:23:09;;;;;;;22.67;17.02;;;;;;;;;;5072208;28;20386;-27
2022/04/16 00:25:35;;;;;;;23.17;16.98;;;;;;;;;;5054354;28;20443;-28
2022/04/16 00:28:02;;;;;;;23.35;17.35;;;;;;;;;;5072116;28;20040;-27
2022/04/16 00:30:30;;;;;;;24.05;18.05;;;;;;;;;;5071634;28;20032;-26
2022/04/16 00:32:57;;;;;;;26.80;18.35;;;;;;;;;;5071959;28;20499;-27
2022/04/16 00:35:23;;;;;;;26.00;18.17;;;;;;;;;;5071921;28;20048;-28
2022/04/16 00:37:50;;;;;;;25.63;18.55;;;;;;;;;;5071606;28;20055;-28
2022/04/16 00:40:16;;;;;;;29.13;18.80;;;;;;;;;;5071794;28;20492;-28
2022/04/16 00:42:46;;;;;;;23.52;18.77;;;;;;;;;;5071972;28;20037;-26
2022/04/16 00:45:13;;;;;;;23.27;18.15;;;;;;;;;;5071587;28;20284;-27
2022/04/16 00:47:39;;;;;;;24.60;17.60;;;;;;;;;;5037492;28;20032;-28
2022/04/16 00:50:08;;;;;;;25.77;18.85;;;;;;;;;;5071341;28;20036;-30
2022/04/16 00:52:35;;;;;;;27.05;19.60;;;;;;;;;;5071103;28;20040;-30
2022/04/16 00:55:01;;;;;;;29.45;19.70;;;;;;;;;;5070873;28;20059;-30
2022/04/16 00:57:27;;;;;;;29.70;20.10;;;;;;;;;;5071466;28;20437;-30
2022/04/16 00:59:55;;;;;;;24.90;19.38;;;;;;;;;;5071451;28;20046;-29
2022/04/16 01:02:21;;;;;;;29.90;21.55;;;;;;;;;;5070953;28;20037;-30
2022/04/16 01:04:48;;;;;;;28.23;20.98;;;;;;;;;;5070929;28;20040;-35
2022/04/16 01:07:14;;;;;;;31.60;20.95;;;;;;;;;;5071088;28;20532;-32
2022/04/16 01:09:40;;;;;;;33.80;23.17;;;;;;;;;;5071573;28;20119;-30
2022/04/16 01:12:06;;;;;;;33.22;21.58;;;;;;;;;;5071204;28;20402;-29
2022/04/16 01:14:33;;;;;;;31.95;22.50;;;;;;;;;;5071122;28;20463;-30
2022/04/16 01:16:59;;;;;;;30.52;21.35;;;;;;;;;;5071353;28;20044;-32
2022/04/16 01:19:25;;;;;;;27.15;20.25;;;;;;;;;;5071015;28;20397;-30
2022/04/16 01:21:51;;;;;;;26.17;19.23;;;;;;;;;;5074634;28;20044;-31
2022/04/16 01:24:18;;;;;;;26.95;20.25;;;;;;;;;;5074281;28;20040;-30
2022/04/16 01:26:44;;;;;;;31.60;20.67;;;;;;;;;;5074922;28;20071;-31
2022/04/16 01:29:13;;;;;;;28.55;21.02;;;;;;;;;;5074345;28;20051;-29
2022/04/16 01:31:39;;;;;;;30.42;20.73;;;;;;;;;;5056584;28;20046;-32
2022/04/16 01:34:07;;;;;;;28.48;20.75;;;;;;;;;;5074386;28;20093;-31
2022/04/16 01:36:34;;;;;;;27.35;20.17;;;;;;;;;;5074463;28;20116;-30
2022/04/16 01:39:00;;;;;;;31.85;21.55;;;;;;;;;;5074364;28;20040;-30
2022/04/16 01:41:28;;;;;;;27.92;20.17;;;;;;;;;;5074085;28;20079;-31
2022/04/16 01:43:54;;;;;;;27.95;19.05;;;;;;;;;;5073561;28;20048;-29
2022/04/16 01:46:21;;;;;;;30.10;21.58;;;;;;;;;;5074161;28;20074;-30
2022/04/16 01:48:49;;;;;;;28.17;20.75;;;;;;;;;;5073903;28;20041;-29
2022/04/16 01:51:17;;;;;;;27.95;19.17;;;;;;;;;;5073671;28;20040;-31
2022/04/16 01:53:44;;;;;;;29.48;20.52;;;;;;;;;;5073827;28;20048;-32
2022/04/16 01:56:11;;;;;;;26.55;20.65;;;;;;;;;;5074232;28;20473;-30
2022/04/16 01:58:38;;;;;;;28.92;20.10;;;;;;;;;;5073840;28;20408;-31
2022/04/16 02:01:05;;;;;;;34.20;23.75;;;;;;;;;;5073529;28;20051;-29
2022/04/16 02:03:31;;;;;;;28.80;19.75;;;;;;;;;;5073710;28;20037;-31
2022/04/16 02:05:57;;;;;;;28.52;21.45;;;;;;;;;;5069871;28;20052;-31
2022/04/16 02:08:23;;;;;;;30.67;19.95;;;;;;;;;;5058833;28;20112;-32
2022/04/16 02:10:49;;;;;;;30.02;21.08;;;;;;;;;;5053490;28;20044;-30
2022/04/16 02:13:15;;;;;;;30.25;20.98;;;;;;;;;;5053159;28;20037;-30
2022/04/16 02:15:41;;;;;;;28.10;20.20;;;;;;;;;;5053781;28;20028;-31
2022/04/16 02:18:07;;;;;;;29.73;21.00;;;;;;;;;;5053604;28;20087;-32
2022/04/16 02:20:36;;;;;;;29.10;19.92;;;;;;;;;;5053275;28;20061;-32
2022/04/16 02:23:02;;;;;;;26.73;19.77;;;;;;;;;;5053680;28;20041;-29
2022/04/16 02:25:28;;;;;;;27.10;20.10;;;;;;;;;;5053754;28;20072;-29
2022/04/16 02:27:54;;;;;;;32.75;22.15;;;;;;;;;;5053286;28;20044;-29
2022/04/16 02:30:22;;;;;;;32.20;21.27;;;;;;;;;;5053208;28;20079;-29
2022/04/16 02:32:52;;;;;;;30.20;22.30;;;;;;;;;;5051855;28;20049;-29
2022/04/16 02:35:18;;;;;;;31.23;22.02;;;;;;;;;;5053478;28;20071;-29
2022/04/16 02:37:45;;;;;;;37.78;23.95;;;;;;;;;;5053277;28;20055;-29
2022/04/16 02:40:11;;;;;;;34.15;23.90;;;;;;;;;;5035288;28;20420;-29
2022/04/16 02:42:38;;;;;;;32.92;22.88;;;;;;;;;;5052734;28;20118;-29
2022/04/16 02:47:49;;;;;;;33.78;23.13;;;;;;;;;;5053268;28;20059;-30
2022/04/16 02:50:16;;;;;;;34.70;23.52;;;;;;;;;;5054162;28;20055;-29
2022/04/16 02:52:44;;;;;;;36.75;23.50;;;;;;;;;;5053596;28;20052;-30
2022/04/16 02:55:10;;;;;;;37.63;25.02;;;;;;;;;;5019055;28;20105;-29
2022/04/16 02:57:36;;;;;;;36.40;24.10;;;;;;;;;;5053602;28;20041;-30
2022/04/16 03:00:03;;;;;;;34.58;23.67;;;;;;;;;;5053512;28;20052;-30
2022/04/16 03:02:29;;;;;;;33.47;23.27;;;;;;;;;;5053537;28;20494;-30
2022/04/16 03:04:55;;;;;;;35.65;23.85;;;;;;;;;;5053196;28;20044;-29
2022/04/16 03:07:21;;;;;;;33.53;23.40;;;;;;;;;;5053408;28;20041;-29
2022/04/16 03:09:47;;;;;;;37.00;23.92;;;;;;;;;;5035588;28;20128;-29
2022/04/16 03:12:13;;;;;;;39.58;25.42;;;;;;;;;;5053637;28;20510;-29
2022/04/16 03:17:34;;;;;;;40.65;26.73;;;;;;;;;;5053111;28;20045;-30
2022/04/16 03:20:09;;;;;;;40.72;25.75;;;;;;;;;;5053248;28;20502;-31
2022/04/16 03:22:39;;;;;;;40.47;27.75;;;;;;;;;;5052854;28;20494;-31
2022/04/16 03:25:07;;;;;;;41.92;24.90;;;;;;;;;;5052441;28;20120;-30
2022/04/16 03:27:33;;;;;;;47.05;28.67;;;;;;;;;;5053104;28;20124;-30
2022/04/16 03:30:01;;;;;;;43.78;27.80;;;;;;;;;;5053143;28;20494;-32
2022/04/16 03:32:27;;;;;;;50.63;30.20;;;;;;;;;;5053009;28;20041;-30
2022/04/16 03:34:53;;;;;;;45.45;29.52;;;;;;;;;;5018659;28;20045;-29
2022/04/16 03:37:19;;;;;;;49.72;31.30;;;;;;;;;;5052372;28;20047;-30
2022/04/16 03:39:45;;;;;;;47.97;29.67;;;;;;;;;;5052356;28;20045;-30
2022/04/16 03:42:12;;;;;;;51.00;30.67;;;;;;;;;;5052004;28;20049;-30
2022/04/16 03:44:38;;;;;;;43.47;28.65;;;;;;;;;;5052356;28;20044;-27
2022/04/16 03:47:04;;;;;;;40.15;27.70;;;;;;;;;;5052809;28;20106;-28
2022/04/16 03:49:30;;;;;;;45.70;28.55;;;;;;;;;;5034942;28;20044;-27
2022/04/16 03:51:56;;;;;;;41.75;28.05;;;;;;;;;;5052115;28;20041;-26
2022/04/16 04:00:05;;;;;;;38.60;26.25;;;;;;;;;;5052870;28;20037;-29
2022/04/16 04:02:33;;;;;;;40.30;27.25;;;;;;;;;;5052793;28;20041;-27
2022/04/16 04:04:59;;;;;;;34.75;23.85;;;;;;;;;;5018460;28;20045;-28
2022/04/16 04:07:26;;;;;;;36.60;25.85;;;;;;;;;;5052025;28;20048;-26
2022/04/16 04:09:52;;;;;;;37.55;24.95;;;;;;;;;;5017747;28;20077;-26
2022/04/16 04:12:19;;;;;;;36.80;25.48;;;;;;;;;;5052797;28;20487;-25
2022/04/16 04:14:45;;;;;;;36.33;25.00;;;;;;;;;;5052162;28;20045;-28
2022/04/16 04:17:11;;;;;;;34.00;24.20;;;;;;;;;;5051998;28;20040;-27
2022/04/16 04:19:39;;;;;;;33.47;23.73;;;;;;;;;;5052387;28;20517;-29
2022/04/16 04:22:05;;;;;;;40.95;25.25;;;;;;;;;;5052020;28;20094;-26
2022/04/16 04:24:32;;;;;;;32.25;22.48;;;;;;;;;;5051951;28;20045;-29
2022/04/16 04:26:58;;;;;;;29.75;23.60;;;;;;;;;;5051819;28;20041;-26
2022/04/16 04:29:24;;;;;;;33.88;23.50;;;;;;;;;;5052270;28;20076;-26
2022/04/16 04:31:51;;;;;;;31.38;22.85;;;;;;;;;;5052364;28;20045;-26
2022/04/16 04:34:17;;;;;;;30.10;21.77;;;;;;;;;;5052474;28;20387;-26
2022/04/16 04:36:43;;;;;;;30.00;21.02;;;;;;;;;;5051769;28;20048;-27
2022/04/16 04:39:09;;;;;;;29.70;20.90;;;;;;;;;;5052026;28;20371;-28
2022/04/16 04:41:35;;;;;;;30.85;21.60;;;;;;;;;;5017463;28;20045;-27
2022/04/16 04:44:01;;;;;;;28.75;20.65;;;;;;;;;;5052119;28;20044;-26
2022/04/16 04:46:27;;;;;;;29.38;20.73;;;;;;;;;;5033944;28;20044;-25
2022/04/16 04:48:53;;;;;;;29.65;20.25;;;;;;;;;;5054937;28;20044;-25
2022/04/16 04:51:20;;;;;;;24.80;18.17;;;;;;;;;;5078231;28;20247;-26
2022/04/16 04:53:46;;;;;;;27.17;20.42;;;;;;;;;;5017285;28;20073;-29
2022/04/16 04:56:12;;;;;;;27.85;19.48;;;;;;;;;;5051157;28;20537;-27
2022/04/16 04:58:39;;;;;;;26.92;20.08;;;;;;;;;;5069786;28;20162;-26
2022/04/16 05:01:05;;;;;;;27.48;19.48;;;;;;;;;;5065107;28;20479;-27
2022/04/16 05:03:31;;;;;;;24.98;18.13;;;;;;;;;;5055454;28;20089;-29
2022/04/16 05:05:57;;;;;;;25.95;18.83;;;;;;;;;;5055605;28;20064;-27
2022/04/16 05:08:23;;;;;;;24.80;18.70;;;;;;;;;;5037446;28;20041;-26
2022/04/16 05:10:49;;;;;;;24.38;17.42;;;;;;;;;;5055405;28;20045;-28
2022/04/16 05:13:15;;;;;;;23.83;18.02;;;;;;;;;;5055431;28;20045;-26
2022/04/16 05:15:41;;;;;;;25.77;18.52;;;;;;;;;;5037625;28;20037;-27
2022/04/16 05:18:07;;;;;;;22.65;17.20;;;;;;;;;;5054778;28;20076;-28
2022/04/16 05:20:33;;;;;;;23.60;17.75;;;;;;;;;;5054934;28;20513;-26
2022/04/16 05:22:59;;;;;;;25.15;18.73;;;;;;;;;;5054823;28;20497;-27
2022/04/16 05:25:26;;;;;;;25.08;17.92;;;;;;;;;;5055129;28;20041;-27
2022/04/16 05:27:52;;;;;;;24.20;18.23;;;;;;;;;;5036936;28;20390;-27
2022/04/16 05:30:34;;;;;;;25.60;18.38;;;;;;;;;;5054422;28;20044;-26
2022/04/16 05:33:16;;;;;;;23.60;17.85;;;;;;;;;;5054307;28;20107;-26
2022/04/16 05:35:42;;;;;;;24.27;18.20;;;;;;;;;;5070276;28;20397;-26
2022/04/16 05:38:09;;;;;;;25.55;17.05;;;;;;;;;;5074048;28;20111;-26
2022/04/16 05:40:35;;;;;;;24.33;16.67;;;;;;;;;;5074503;28;20375;-28
2022/04/16 05:43:01;;;;;;;21.83;15.73;;;;;;;;;;5063765;28;20063;-27
2022/04/16 05:45:27;;;;;;;22.98;16.33;;;;;;;;;;5056391;28;20032;-26
2022/04/16 05:47:54;;;;;;;22.17;16.13;;;;;;;;;;5065779;28;20348;-29
2022/04/16 05:50:20;;;;;;;20.58;15.95;;;;;;;;;;5074376;28;20064;-29
2022/04/16 05:52:46;;;;;;;23.60;16.40;;;;;;;;;;5074429;28;20125;-27
2022/04/16 05:55:13;;;;;;;27.20;16.38;;;;;;;;;;5074379;28;20501;-27
2022/04/16 05:57:39;;;;;;;23.50;16.58;;;;;;;;;;5074657;28;20052;-26
2022/04/16 06:00:06;;;;;;;25.00;17.88;;;;;;;;;;5074596;28;20497;-26
2022/04/16 06:02:32;;;;;;;26.27;18.70;;;;;;;;;;5074318;28;20489;-26
2022/04/16 06:04:59;;;;;;;24.15;16.70;;;;;;;;;;5073999;28;20394;-27
2022/04/16 06:07:25;;;;;;;24.35;16.95;;;;;;;;;;5073734;28;20037;-25
2022/04/16 06:09:52;;;;;;;23.88;17.48;;;;;;;;;;5067097;28;20047;-28
2022/04/16 06:12:18;;;;;;;23.15;16.27;;;;;;;;;;5052455;28;20055;-26
2022/04/16 06:14:44;;;;;;;23.17;16.70;;;;;;;;;;5071063;28;20045;-29
2022/04/16 06:17:10;;;;;;;24.27;16.75;;;;;;;;;;5073747;28;20136;-29
2022/04/16 06:19:36;;;;;;;22.23;15.75;;;;;;;;;;5073602;28;20072;-25
2022/04/16 06:22:02;;;;;;;20.60;15.32;;;;;;;;;;5073692;28;20033;-28
2022/04/16 06:24:28;;;;;;;24.75;15.70;;;;;;;;;;5047941;28;20037;-26
2022/04/16 06:26:55;;;;;;;21.13;14.18;;;;;;;;;;5071114;28;20044;-28
2022/04/16 06:29:21;;;;;;;23.05;14.98;;;;;;;;;;5073642;28;20070;-27
2022/04/16 06:31:47;;;;;;;19.25;14.27;;;;;;;;;;5072164;28;20044;-27
2022/04/16 06:34:13;;;;;;;22.20;15.25;;;;;;;;;;5064859;28;20047;-26
2022/04/16 06:36:39;;;;;;;22.65;14.70;;;;;;;;;;5064052;28;20466;-27
2022/04/16 06:39:05;;;;;;;20.63;15.20;;;;;;;;;;5070697;28;20029;-26
2022/04/16 06:41:31;;;;;;;21.80;14.75;;;;;;;;;;5073554;28;20037;-27
2022/04/16 06:43:57;;;;;;;20.63;14.43;;;;;;;;;;5073690;28;20036;-26
2022/04/16 06:46:23;;;;;;;19.58;13.95;;;;;;;;;;5073390;28;20044;-26
2022/04/16 06:48:49;;;;;;;23.40;15.23;;;;;;;;;;5072781;28;20077;-27
2022/04/16 06:51:15;;;;;;;20.77;15.13;;;;;;;;;;5071002;28;20490;-29
2022/04/16 06:53:43;;;;;;;20.83;14.73;;;;;;;;;;5072736;28;20036;-28
2022/04/16 06:56:09;;;;;;;19.80;14.95;;;;;;;;;;5073183;28;20119;-27
2022/04/16 06:58:35;;;;;;;21.65;15.10;;;;;;;;;;5055252;28;20085;-26
2022/04/16 07:01:01;;;;;;;20.23;14.10;;;;;;;;;;5072974;28;20032;-26
2022/04/16 07:03:27;;;;;;;19.23;14.38;;;;;;;;;;5072448;28;20041;-26
2022/04/16 07:05:53;;;;;;;18.42;14.25;;;;;;;;;;5072554;28;20496;-26
2022/04/16 07:08:19;;;;;;;19.23;14.45;;;;;;;;;;5069434;28;20128;-27
2022/04/16 07:10:45;;;;;;;18.58;13.93;;;;;;;;;;5072246;28;20501;-27
2022/04/16 07:13:11;;;;;;;17.05;13.10;;;;;;;;;;5067735;28;20051;-27
2022/04/16 07:15:37;;;;;;;17.20;12.73;;;;;;;;;;5052904;28;20047;-28
2022/04/16 07:18:04;;;;;;;15.57;11.55;;;;;;;;;;5051879;28;20037;-27
2022/04/16 07:20:30;;;;;;;16.35;12.48;;;;;;;;;;5071294;28;20379;-26
2022/04/16 07:22:56;;;;;;;14.02;10.60;;;;;;;;;;5071981;28;20115;-26
2022/04/16 07:25:22;;;;;;;16.23;12.30;;;;;;;;;;5072290;28;20091;-26
2022/04/16 07:27:48;;;;;;;14.88;11.35;;;;;;;;;;5071849;28;20041;-26
2022/04/16 07:30:14;;;;;;;14.68;11.02;;;;;;;;;;5071908;28;20097;-27
2022/04/16 07:32:40;;;;;;;13.43;10.48;;;;;;;;;;5072321;28;20036;-28
2022/04/16 07:35:07;;;;;;;15.02;10.35;;;;;;;;;;5068972;28;20414;-27
2022/04/16 07:37:33;;;;;;;12.90;10.20;;;;;;;;;;5058023;28;20072;-26
2022/04/16 07:39:59;;;;;;;11.85;10.02;;;;;;;;;;5059971;28;20090;-27
2022/04/16 07:42:26;;;;;;;11.55;9.32;;;;;;;;;;5067315;28;20039;-26
2022/04/16 07:44:53;;;;;;;11.82;9.10;;;;;;;;;;5054017;28;20405;-26
2022/04/16 07:47:19;;;;;;;11.98;8.75;;;;;;;;;;5064134;28;20394;-26
2022/04/16 07:49:45;;;;;;;11.15;9.05;;;;;;;;;;5071589;28;20036;-27
2022/04/16 07:52:11;;;;;;;10.32;8.18;;;;;;;;;;5071363;28;20048;-27
2022/04/16 07:54:37;;;;;;;10.55;8.02;;;;;;;;;;5071358;28;20189;-32
2022/04/16 07:57:06;;;;;;;11.65;8.30;;;;;;;;;;5067341;28;20040;-29
2022/04/16 07:59:33;;;;;;;10.65;7.72;;;;;;;;;;5057736;28;20062;-31
2022/04/16 08:01:59;;;;;;;8.77;7.30;;;;;;;;;;5048722;28;20037;-31
2022/04/16 08:04:25;;;;;;;11.13;7.60;;;;;;;;;;5058996;28;20466;-30
2022/04/16 08:06:51;;;;;;;8.88;7.63;;;;;;;;;;5061063;28;20067;-31
2022/04/16 08:09:18;;;;;;;10.40;7.13;;;;;;;;;;5069470;28;20041;-33
2022/04/16 08:11:47;;;;;;;9.57;6.95;;;;;;;;;;5069850;28;20452;-30
2022/04/16 08:14:14;;;;;;;10.48;7.50;;;;;;;;;;5070640;28;20041;-29
2022/04/16 08:16:40;;;;;;;8.13;6.95;;;;;;;;;;5070827;28;20041;-32
2022/04/16 08:19:06;;;;;;;8.52;6.75;;;;;;;;;;5071446;28;20545;-31
2022/04/16 08:21:34;;;;;;;10.07;6.95;;;;;;;;;;5071266;28;20040;-30
2022/04/16 08:24:12;;;;;;;8.63;5.82;;;;;;;;;;5071029;28;20398;-34
2022/04/16 08:26:39;;;;;;;6.38;5.55;;;;;;;;;;5071174;28;20047;-35
2022/04/16 08:29:05;;;;;;;7.40;5.28;;;;;;;;;;5071611;28;20579;-32
2022/04/16 08:31:31;;;;;;;7.20;5.68;;;;;;;;;;5066979;28;20123;-32
2022/04/16 08:33:57;;;;;;;5.53;4.43;;;;;;;;;;5065434;28;20076;-32
2022/04/16 08:36:23;;;;;;;6.43;5.20;;;;;;;;;;5042421;28;20045;-31
2022/04/16 08:38:49;;;;;;;8.77;4.93;;;;;;;;;;5055606;28;20041;-31
2022/04/16 08:41:15;;;;;;;7.43;4.90;;;;;;;;;;5055474;28;20037;-33
2022/04/16 08:43:42;;;;;;;4.82;4.03;;;;;;;;;;5056182;28;20493;-31
2022/04/16 08:46:08;;;;;;;6.13;4.03;;;;;;;;;;5055540;28;20052;-31
2022/04/16 08:48:36;;;;;;;5.65;4.50;;;;;;;;;;5062871;28;20040;-31
2022/04/16 08:51:02;;;;;;;7.43;4.25;;;;;;;;;;5070378;28;20119;-31
2022/04/16 08:53:28;;;;;;;6.32;3.80;;;;;;;;;;5055838;28;20044;-30
2022/04/16 08:55:54;;;;;;;4.85;3.35;;;;;;;;;;5055590;28;20043;-30
2022/04/16 08:58:20;;;;;;;5.45;3.90;;;;;;;;;;5054856;28;20091;-32
2022/04/16 09:00:47;;;;;;;3.55;3.00;;;;;;;;;;5054118;28;20033;-31
2022/04/16 09:03:13;;;;;;;5.20;3.13;;;;;;;;;;5054055;28;20048;-31
2022/04/16 09:05:39;;;;;;;3.85;2.83;;;;;;;;;;5053937;28;20505;-32
2022/04/16 09:08:06;;;;;;;4.15;3.30;;;;;;;;;;5054220;28;20394;-32
2022/04/16 09:10:33;;;;;;;3.95;2.97;;;;;;;;;;5053345;28;20052;-33
2022/04/16 09:13:00;;;;;;;3.38;3.08;;;;;;;;;;5053691;28;20084;-33
2022/04/16 09:15:27;;;;;;;4.25;3.45;;;;;;;;;;5055526;28;20068;-32
2022/04/16 09:18:06;;;;;;;4.70;3.28;;;;;;;;;;5054732;28;20406;-31
2022/04/16 09:20:32;;;;;;;5.22;3.80;;;;;;;;;;5054695;28;20041;-31
2022/04/16 09:22:58;;;;;;;4.88;3.42;;;;;;;;;;5054514;28;20072;-33
2022/04/16 09:25:24;;;;;;;3.15;2.58;;;;;;;;;;5055009;28;20052;-33
2022/04/16 09:27:52;;;;;;;4.65;2.42;;;;;;;;;;5055024;28;20510;-33
2022/04/16 09:30:24;;;;;;;3.30;2.78;;;;;;;;;;5055098;28;20048;-31
2022/04/16 09:32:52;;;;;;;2.85;2.38;;;;;;;;;;5037120;28;20157;-33
2022/04/16 09:35:33;;;;;;;2.33;1.70;;;;;;;;;;5054720;28;20048;-34
2022/04/16 09:38:03;;;;;;;5.75;2.17;;;;;;;;;;5054119;28;20041;-31
2022/04/16 09:40:30;;;;;;;2.50;1.77;;;;;;;;;;5055530;28;20048;-31
2022/04/16 09:42:57;;;;;;;5.07;1.98;;;;;;;;;;5065995;28;20107;-33
2022/04/16 09:45:23;;;;;;;21.45;4.47;;;;;;;;;;5063909;28;20037;-32
2022/04/16 09:47:50;;;;;;;3.90;1.85;;;;;;;;;;5064234;28;20037;-31
2022/04/16 09:50:20;;;;;;;6.07;1.60;;;;;;;;;;5061969;28;20052;-33
2022/04/16 09:52:50;;;;;;;1.70;1.55;;;;;;;;;;5053176;28;20080;-32
2022/04/16 09:55:16;;;;;;;2.42;1.45;;;;;;;;;;5073341;28;20040;-31
2022/04/16 09:57:42;;;;;;;3.78;1.63;;;;;;;;;;5074275;28;20045;-32
2022/04/16 10:00:08;;;;;;;3.20;1.40;;;;;;;;;;5074360;28;20114;-32
2022/04/16 10:02:35;;;;;;;2.33;1.30;;;;;;;;;;5055151;28;20620;-32
2022/04/16 10:05:01;;;;;;;2.42;1.48;;;;;;;;;;5034488;28;20076;-36
2022/04/16 10:07:27;;;;;;;1.60;1.50;;;;;;;;;;5052276;28;20045;-31
2022/04/16 10:09:53;;;;;;;2.00;1.30;;;;;;;;;;5051668;28;20043;-31
2022/04/16 10:15:00;;;;;;;2.17;1.48;;;;;;;;;;5052259;28;20055;-30
2022/04/16 10:17:29;;;;;;;2.30;1.27;;;;;;;;;;5050875;28;20056;-29
2022/04/16 10:20:05;;;;;;;1.20;0.98;;;;;;;;;;5068034;28;20117;-31
2022/04/16 10:22:31;;;;;;;1.25;1.15;;;;;;;;;;5073719;28;20039;-31
2022/04/16 10:24:58;;;;;;;2.45;1.17;;;;;;;;;;5056867;28;20036;-34
2022/04/16 10:27:27;;;;;;;5.97;1.35;;;;;;;;;;5073708;28;20040;-34
2022/04/16 10:29:54;;;;;;;1.88;1.23;;;;;;;;;;5073394;28;20401;-32
2022/04/16 10:32:20;;;;;;;1.40;1.23;;;;;;;;;;5074256;28;20444;-32
2022/04/16 10:34:46;;;;;;;2.42;1.10;;;;;;;;;;5073127;28;20494;-34
2022/04/16 10:37:22;;;;;;;1.70;1.30;;;;;;;;;;5073124;28;20401;-32
2022/04/16 10:39:52;;;;;;;1.20;0.85;;;;;;;;;;5073326;28;20068;-33
2022/04/16 10:42:28;;;;;;;1.70;0.80;;;;;;;;;;5072776;28;20135;-35
2022/04/16 10:44:54;;;;;;;2.92;1.10;;;;;;;;;;5072927;28;20482;-33
2022/04/16 10:47:21;;;;;;;1.98;1.00;;;;;;;;;;5068884;28;20500;-30
2022/04/16 10:49:47;;;;;;;1.65;1.48;;;;;;;;;;5057923;28;20098;-34
2022/04/16 10:52:20;;;;;;;1.77;1.00;;;;;;;;;;5071493;28;20486;-30
2022/04/16 10:54:47;;;;;;;2.50;1.50;;;;;;;;;;5053609;28;20323;-30
2022/04/16 10:57:21;;;;;;;1.52;1.20;;;;;;;;;;5050101;28;20037;-34
2022/04/16 10:59:47;;;;;;;2.20;1.40;;;;;;;;;;5065185;28;20445;-33
2022/04/16 11:02:20;;;;;;;3.40;1.08;;;;;;;;;;5061954;28;20036;-33
2022/04/16 11:04:57;;;;;;;1.95;1.15;;;;;;;;;;5056888;28;20150;-32
2022/04/16 11:07:24;;;;;;;1.20;1.10;;;;;;;;;;5060332;28;20111;-31
2022/04/16 11:09:53;;;;;;;1.55;1.02;;;;;;;;;;5058164;28;20032;-33
2022/04/16 11:12:22;;;;;;;1.25;1.15;;;;;;;;;;5062337;28;20075;-30
2022/04/16 11:14:49;;;;;;;2.50;1.40;;;;;;;;;;5073102;28;20497;-32
2022/04/16 11:17:15;;;;;;;2.20;1.08;;;;;;;;;;5061726;28;20082;-29
2022/04/16 11:19:41;;;;;;;1.77;1.30;;;;;;;;;;5042995;28;20451;-30
2022/04/16 11:22:07;;;;;;;2.45;1.20;;;;;;;;;;5053108;28;20079;-29
2022/04/16 11:24:35;;;;;;;1.67;1.08;;;;;;;;;;5055414;28;20037;-31
2022/04/16 11:35:23;;;;;;;2.35;1.35;;;;;;;;;;5072238;28;20089;-32
2022/04/16 11:37:56;;;;;;;1.63;1.00;;;;;;;;;;5072249;28;20041;-32
2022/04/16 11:40:22;;;;;;;1.23;1.13;;;;;;;;;;5069462;28;20087;-32
2022/04/16 11:42:49;;;;;;;1.40;1.00;;;;;;;;;;5054409;28;20033;-30
2022/04/16 11:45:16;;;;;;;1.98;1.02;;;;;;;;;;5062225;28;20043;-32
2022/04/16 11:47:42;;;;;;;1.35;0.93;;;;;;;;;;5062572;28;20067;-30
2022/04/16 11:50:10;;;;;;;1.08;0.98;;;;;;;;;;5050954;28;20059;-29
2022/04/16 11:52:37;;;;;;;1.00;0.85;;;;;;;;;;5059438;28;20037;-29
2022/04/16 11:55:06;;;;;;;1.88;1.20;;;;;;;;;;5050336;28;20120;-31
2022/04/16 11:57:33;;;;;;;1.17;1.08;;;;;;;;;;5049392;28;20040;-33
2022/04/16 12:00:10;;;;;;;2.20;1.00;;;;;;;;;;5060203;28;20036;-31
2022/04/16 12:02:37;;;;;;;1.20;1.10;;;;;;;;;;5065988;28;20402;-28
2022/04/16 12:05:14;;;;;;;1.52;0.98;;;;;;;;;;5069835;28;20056;-29
2022/04/16 12:07:40;;;;;;;3.35;0.98;;;;;;;;;;5070438;28;20097;-30
2022/04/16 12:10:06;;;;;;;0.98;0.90;;;;;;;;;;5072091;28;20041;-34
2022/04/16 12:12:42;;;;;;;1.00;0.90;;;;;;;;;;5071020;28;20083;-30
2022/04/16 12:15:08;;;;;;;2.10;0.95;;;;;;;;;;5071830;28;20051;-30
2022/04/16 12:17:38;;;;;;;1.55;0.80;;;;;;;;;;5069856;28;20164;-31
2022/04/16 12:20:05;;;;;;;1.75;1.00;;;;;;;;;;5067035;28;20048;-33
2022/04/16 12:22:32;;;;;;;1.48;1.00;;;;;;;;;;5063423;28;20051;-33
2022/04/16 12:25:11;;;;;;;1.40;0.98;;;;;;;;;;5070892;28;20043;-33
2022/04/16 12:27:43;;;;;;;2.33;1.10;;;;;;;;;;5071473;28;20090;-32
2022/04/16 12:30:09;;;;;;;3.70;1.27;;;;;;;;;;5071414;28;20044;-32
2022/04/16 12:32:35;;;;;;;1.58;1.02;;;;;;;;;;5071019;28;20123;-33
2022/04/16 12:35:02;;;;;;;3.38;1.48;;;;;;;;;;5071083;28;20512;-31
2022/04/16 12:37:28;;;;;;;1.63;1.30;;;;;;;;;;5062701;28;20079;-31
2022/04/16 12:39:54;;;;;;;1.40;1.20;;;;;;;;;;5071337;28;20037;-32
2022/04/16 12:42:20;;;;;;;3.63;1.33;;;;;;;;;;5071280;28;20456;-33
2022/04/16 12:44:46;;;;;;;1.30;1.08;;;;;;;;;;5071529;28;20478;-31
2022/04/16 12:47:14;;;;;;;1.50;1.08;;;;;;;;;;5071237;28;20040;-32
2022/04/16 12:49:40;;;;;;;1.30;1.20;;;;;;;;;;5070674;28;20047;-32
2022/04/16 12:52:06;;;;;;;2.78;1.23;;;;;;;;;;5071131;28;20040;-32
2022/04/16 12:54:35;;;;;;;3.25;1.20;;;;;;;;;;5070895;28;20138;-32
2022/04/16 12:57:01;;;;;;;2.15;0.90;;;;;;;;;;5071107;28;20521;-33
2022/04/16 12:59:27;;;;;;;1.15;1.05;;;;;;;;;;5071368;28;20041;-32
2022/04/16 13:01:53;;;;;;;2.03;1.20;;;;;;;;;;5070692;28;20044;-33
2022/04/16 13:04:19;;;;;;;1.48;0.95;;;;;;;;;;5052897;28;20098;-35
2022/04/16 13:06:45;;;;;;;1.45;1.10;;;;;;;;;;5070139;28;20405;-33
2022/04/16 13:09:11;;;;;;;1.50;1.02;;;;;;;;;;5070023;28;20044;-31
2022/04/16 13:11:38;;;;;;;2.33;1.10;;;;;;;;;;5065324;28;20081;-32
2022/04/16 13:14:04;;;;;;;0.98;0.90;;;;;;;;;;5059331;28;20132;-31
2022/04/16 13:16:30;;;;;;;1.35;1.25;;;;;;;;;;5052457;28;20120;-31
2022/04/16 13:18:56;;;;;;;1.25;1.10;;;;;;;;;;5068861;28;20133;-32
2022/04/16 13:21:22;;;;;;;2.80;1.30;;;;;;;;;;5074681;28;20047;-32
2022/04/16 13:23:49;;;;;;;1.17;1.08;;;;;;;;;;5074453;28;20115;-33
2022/04/16 13:26:15;;;;;;;3.67;1.20;;;;;;;;;;5056655;28;20490;-31
2022/04/16 13:28:41;;;;;;;1.73;1.20;;;;;;;;;;5073697;28;20037;-33
2022/04/16 13:31:09;;;;;;;1.75;1.13;;;;;;;;;;5065506;28;20112;-31
2022/04/16 13:33:35;;;;;;;1.67;1.35;;;;;;;;;;5065194;28;20041;-31
2022/04/16 13:36:02;;;;;;;1.20;0.90;;;;;;;;;;5066105;28;20047;-31
2022/04/16 13:38:28;;;;;;;1.38;1.00;;;;;;;;;;5074302;28;20052;-30
2022/04/16 13:43:42;;;;;;;2.20;1.48;;;;;;;;;;5073867;28;20482;-32
2022/04/16 13:46:09;;;;;;;2.08;1.20;;;;;;;;;;5074544;28;20483;-33
2022/04/16 13:48:35;;;;;;;1.38;1.27;;;;;;;;;;5074270;28;20048;-31
2022/04/16 13:51:01;;;;;;;1.38;1.27;;;;;;;;;;5073775;28;20040;-32
2022/04/16 13:53:28;;;;;;;2.60;1.40;;;;;;;;;;5073716;28;20041;-33
2022/04/16 13:55:54;;;;;;;2.05;1.23;;;;;;;;;;5074225;28;20087;-31
2022/04/16 13:58:20;;;;;;;1.58;1.15;;;;;;;;;;5073527;28;20098;-32
2022/04/16 14:00:46;;;;;;;2.90;1.35;;;;;;;;;;5074165;28;20044;-31
2022/04/16 14:03:12;;;;;;;1.25;1.00;;;;;;;;;;5055598;28;20068;-32
2022/04/16 14:05:45;;;;;;;3.33;1.10;;;;;;;;;;5073077;28;20095;-32
2022/04/16 14:08:14;;;;;;;1.73;1.33;;;;;;;;;;5054155;28;20564;-33
2022/04/16 14:10:41;;;;;;;1.88;1.27;;;;;;;;;;5051452;28;20071;-31
2022/04/16 14:13:08;;;;;;;1.50;1.40;;;;;;;;;;5052428;28;20048;-33
2022/04/16 14:15:34;;;;;;;2.25;1.33;;;;;;;;;;5053540;28;20529;-35
2022/04/16 14:18:01;;;;;;;1.83;1.40;;;;;;;;;;5054328;28;20045;-34
2022/04/16 14:20:27;;;;;;;2.22;1.20;;;;;;;;;;5053679;28;20048;-35
2022/04/16 14:22:53;;;;;;;1.77;1.20;;;;;;;;;;5052561;28;20044;-33
2022/04/16 14:25:19;;;;;;;1.30;1.17;;;;;;;;;;5057879;28;20075;-35
2022/04/16 14:27:45;;;;;;;1.45;1.35;;;;;;;;;;5062013;28;20251;-31
2022/04/16 14:30:11;;;;;;;3.65;1.40;;;;;;;;;;5051218;28;20052;-32
2022/04/16 14:32:38;;;;;;;2.47;1.20;;;;;;;;;;5051764;28;20419;-31
2022/04/16 14:35:04;;;;;;;2.08;1.67;;;;;;;;;;5050695;28;20040;-32
2022/04/16 14:37:31;;;;;;;1.15;1.10;;;;;;;;;;5050653;28;20051;-35
2022/04/16 14:39:57;;;;;;;1.48;1.25;;;;;;;;;;5050290;28;20045;-34
2022/04/16 14:42:23;;;;;;;1.30;1.20;;;;;;;;;;5051253;28;20041;-37
2022/04/16 14:44:52;;;;;;;1.60;1.20;;;;;;;;;;5053372;28;20120;-32
2022/04/16 14:47:19;;;;;;;1.70;1.15;;;;;;;;;;5051635;28;20410;-31
2022/04/16 14:49:46;;;;;;;2.03;1.52;;;;;;;;;;5052916;28;20045;-35
2022/04/16 14:52:12;;;;;;;1.98;1.70;;;;;;;;;;5051403;28;20111;-32